Time;durP1;ratioP1;P1;durP2;ratioP2;P2;SDS_P1;SDS_P2;PMS_P1;PMS_P2;Temp;Humidity;BMP_temperature;BMP_pressure;BME280_temperature;BME280_humidity;BME280_pressure;Samples;Min_cycle;Max_cycle;Signal;HPM_P1;HPM_P2
2022/08/02 00:00:54;;;;;;;2.57;1.10;;;;;;;19.57;75.68;101311.50;5019323;28;20526;-71
2022/08/02 00:03:20;;;;;;;2.60;0.97;;;;;;;19.58;75.55;101309.56;5019556;28;20450;-71
2022/08/02 00:05:48;;;;;;;3.67;1.27;;;;;;;19.57;74.74;101311.50;5019579;28;20881;-71
2022/08/02 00:08:15;;;;;;;2.43;1.00;;;;;;;19.51;75.14;101307.38;5019519;28;20499;-71
2022/08/02 00:10:42;;;;;;;3.63;1.40;;;;;;;19.50;75.09;101313.22;5019474;28;20879;-71
2022/08/02 00:13:08;;;;;;;4.40;1.37;;;;;;;19.52;74.76;101313.66;5019208;28;20530;-71
2022/08/02 00:15:35;;;;;;;2.97;1.13;;;;;;;19.49;74.20;101319.88;5019431;28;20482;-71
2022/08/02 00:18:01;;;;;;;2.87;1.10;;;;;;;19.46;74.49;101307.59;5018936;28;20579;-71
2022/08/02 00:20:28;;;;;;;4.57;1.60;;;;;;;19.44;75.43;101312.66;5019139;28;21036;-70
2022/08/02 00:22:56;;;;;;;3.77;1.50;;;;;;;19.42;74.70;101312.97;5019405;28;20482;-71
2022/08/02 00:25:22;;;;;;;3.93;1.30;;;;;;;19.47;73.98;101319.41;5019329;28;20519;-72
2022/08/02 00:27:49;;;;;;;2.73;1.10;;;;;;;19.47;74.31;101319.41;5018998;28;20476;-71
2022/08/02 00:30:16;;;;;;;3.33;1.37;;;;;;;19.51;74.01;101320.31;5016490;28;20448;-71
2022/08/02 00:32:42;;;;;;;2.63;1.00;;;;;;;19.52;73.56;101294.44;5016115;28;20446;-72
2022/08/02 00:35:09;;;;;;;4.63;1.20;;;;;;;19.45;73.96;101305.22;5016235;28;20631;-72
2022/08/02 00:37:39;;;;;;;3.50;1.57;;;;;;;19.41;73.73;101311.38;5015999;28;20920;-72
2022/08/02 00:40:09;;;;;;;2.73;1.10;;;;;;;19.36;73.78;101308.88;5016061;28;20440;-71
2022/08/02 00:42:35;;;;;;;2.30;1.00;;;;;;;19.32;74.42;101310.69;5016040;28;20472;-71
2022/08/02 00:45:02;;;;;;;3.10;1.20;;;;;;;19.35;75.38;101301.78;5016023;28;20440;-72
2022/08/02 00:47:29;;;;;;;3.40;1.60;;;;;;;19.31;74.77;101300.88;5015591;28;21029;-72
2022/08/02 00:49:55;;;;;;;4.30;1.00;;;;;;;19.31;76.00;101305.56;5015880;28;20491;-71
2022/08/02 00:52:22;;;;;;;2.67;1.10;;;;;;;19.37;75.90;101304.97;5015882;28;20487;-72
2022/08/02 00:54:49;;;;;;;3.40;1.10;;;;;;;19.42;76.24;101307.50;5016047;28;20523;-72
2022/08/02 00:57:17;;;;;;;4.63;1.07;;;;;;;19.48;76.13;101305.34;5015739;28;20460;-72
2022/08/02 00:59:44;;;;;;;2.30;0.80;;;;;;;19.48;76.86;101305.34;5015647;28;20610;-71
2022/08/02 01:02:10;;;;;;;6.90;1.27;;;;;;;19.50;77.07;101304.97;5015344;28;20486;-71
2022/08/02 01:04:37;;;;;;;3.10;1.07;;;;;;;19.51;77.02;101315.63;5015630;28;20527;-71
2022/08/02 01:07:04;;;;;;;3.27;1.47;;;;;;;19.47;76.33;101314.69;5015522;28;20547;-71
2022/08/02 01:09:31;;;;;;;4.00;1.30;;;;;;;19.47;74.99;101319.41;5015495;28;20942;-71
2022/08/02 01:11:58;;;;;;;2.80;1.27;;;;;;;19.42;75.85;101323.97;5015513;28;20538;-71
2022/08/02 01:14:26;;;;;;;3.67;1.33;;;;;;;19.44;75.69;101325.59;5015451;28;20444;-71
2022/08/02 01:17:01;;;;;;;4.93;1.40;;;;;;;19.43;76.74;101319.28;5015029;28;20547;-72
2022/08/02 01:19:36;;;;;;;3.00;1.03;;;;;;;19.42;76.51;101318.47;5015427;28;20554;-72
2022/08/02 01:22:29;;;;;;;3.77;1.20;;;;;;;19.42;75.31;101320.44;5015075;28;20527;-72
2022/08/02 01:25:12;;;;;;;2.63;1.23;;;;;;;19.42;75.08;101334.16;5011295;28;20542;-72
2022/08/02 01:27:51;;;;;;;2.20;0.90;;;;;;;19.37;75.15;101335.19;5014835;28;21088;-72
2022/08/02 01:30:19;;;;;;;3.10;1.50;;;;;;;19.34;75.25;101335.88;5014929;28;20435;-71
2022/08/02 01:32:52;;;;;;;2.40;0.90;;;;;;;19.23;75.39;101328.44;5014843;28;21024;-72
2022/08/02 01:35:24;;;;;;;3.00;1.23;;;;;;;19.18;75.60;101332.22;5015107;28;20460;-72
2022/08/02 01:37:56;;;;;;;3.10;1.40;;;;;;;19.16;75.76;101331.72;5014939;28;20543;-72
2022/08/02 01:40:28;;;;;;;2.63;1.33;;;;;;;19.16;76.39;101335.28;5014522;28;20906;-72
2022/08/02 01:42:57;;;;;;;4.07;1.57;;;;;;;19.13;76.55;101333.22;5013762;28;20779;-71
2022/08/02 01:45:30;;;;;;;3.27;1.40;;;;;;;19.10;76.44;101336.66;5014873;28;20808;-72
2022/08/02 01:47:57;;;;;;;10.53;1.30;;;;;;;19.02;76.36;101336.75;5014763;28;20508;-72
2022/08/02 01:50:28;;;;;;;3.70;1.70;;;;;;;19.03;77.60;101333.66;5014747;28;20451;-71
2022/08/02 01:52:57;;;;;;;2.50;1.23;;;;;;;19.11;77.81;101329.22;5014831;28;20511;-72
2022/08/02 01:55:29;;;;;;;3.30;1.30;;;;;;;19.12;78.01;101330.81;5014682;28;20444;-72
2022/08/02 01:57:58;;;;;;;5.40;1.27;;;;;;;19.16;78.23;101326.25;5014260;28;20806;-72
2022/08/02 02:00:30;;;;;;;2.97;1.40;;;;;;;19.16;78.96;101327.03;5014644;28;20527;-72
2022/08/02 02:02:58;;;;;;;5.70;1.60;;;;;;;19.15;78.66;101330.94;5014618;28;20527;-72
2022/08/02 02:05:29;;;;;;;2.63;1.23;;;;;;;19.15;77.46;101333.69;5014260;28;20531;-72
2022/08/02 02:07:58;;;;;;;3.77;1.70;;;;;;;19.10;77.39;101333.91;5014662;28;20464;-72
2022/08/02 02:10:28;;;;;;;2.93;1.20;;;;;;;19.10;77.57;101335.84;5014148;28;20450;-71
2022/08/02 02:12:56;;;;;;;3.10;1.40;;;;;;;19.07;78.02;101331.81;5014403;28;20447;-71
2022/08/02 02:15:25;;;;;;;4.50;1.50;;;;;;;19.03;78.08;101328.16;5014333;28;20483;-72
2022/08/02 02:17:56;;;;;;;3.30;1.40;;;;;;;19.02;78.90;101332.06;5014156;28;20555;-72
2022/08/02 02:20:22;;;;;;;6.07;1.13;;;;;;;18.97;78.39;101337.75;5014314;28;20512;-71
2022/08/02 02:22:50;;;;;;;2.90;0.90;;;;;;;18.95;78.67;101333.75;5014497;28;20533;-72
2022/08/02 02:25:21;;;;;;;3.27;1.43;;;;;;;18.92;78.80;101337.97;5013756;28;20936;-72
2022/08/02 02:27:54;;;;;;;10.70;2.10;;;;;;;18.87;78.69;101336.25;5013668;28;20843;-72
2022/08/02 02:30:23;;;;;;;3.37;1.03;;;;;;;18.79;79.84;101339.09;5013834;28;20944;-70
2022/08/02 02:32:55;;;;;;;3.10;1.30;;;;;;;18.74;80.16;101342.84;5014056;28;20472;-71
2022/08/02 02:35:23;;;;;;;2.87;1.23;;;;;;;18.70;80.40;101335.63;5014060;28;20428;-70
2022/08/02 02:37:51;;;;;;;3.63;1.53;;;;;;;18.66;81.02;101338.22;5013908;28;20456;-71
2022/08/02 02:40:20;;;;;;;8.60;1.77;;;;;;;18.60;81.21;101336.81;5013599;28;20480;-70
2022/08/02 02:42:48;;;;;;;3.37;1.50;;;;;;;18.56;81.73;101344.13;5013621;28;21009;-70
2022/08/02 02:45:17;;;;;;;5.20;1.93;;;;;;;18.48;82.16;101345.78;5013863;28;20448;-70
2022/08/02 02:47:44;;;;;;;17.93;2.00;;;;;;;18.41;81.00;101346.31;5013724;28;20559;-70
2022/08/02 02:50:12;;;;;;;3.17;1.37;;;;;;;18.35;79.95;101342.19;5013762;28;20444;-70
2022/08/02 02:52:40;;;;;;;2.70;1.03;;;;;;;18.28;81.24;101347.41;5013048;28;20482;-70
2022/08/02 02:55:08;;;;;;;3.27;1.47;;;;;;;18.20;82.59;101352.97;5013718;28;20534;-71
2022/08/02 02:57:36;;;;;;;4.17;1.60;;;;;;;18.13;83.44;101343.31;5013591;28;20475;-71
2022/08/02 03:00:04;;;;;;;3.23;1.20;;;;;;;18.07;83.56;101346.59;5013632;28;20488;-71
2022/08/02 03:02:31;;;;;;;3.63;1.43;;;;;;;18.01;84.07;101347.91;5013516;28;20475;-70
2022/08/02 03:05:01;;;;;;;3.80;1.50;;;;;;;18.00;84.27;101346.31;5013315;28;20539;-71
2022/08/02 03:07:29;;;;;;;3.93;1.80;;;;;;;18.00;85.34;101347.13;5013521;28;20460;-71
2022/08/02 03:09:56;;;;;;;8.13;2.43;;;;;;;18.01;85.94;101345.16;5013542;28;20479;-70
2022/08/02 03:12:24;;;;;;;5.53;1.90;;;;;;;18.03;86.77;101340.16;5013530;28;20552;-70
2022/08/02 03:14:51;;;;;;;3.57;1.53;;;;;;;18.06;85.27;101345.81;5013160;28;20938;-71
2022/08/02 03:17:17;;;;;;;3.63;1.43;;;;;;;18.04;84.95;101348.06;5013078;28;20547;-71
2022/08/02 03:19:45;;;;;;;3.70;1.53;;;;;;;18.06;84.75;101354.03;5013368;28;20559;-71
2022/08/02 03:22:11;;;;;;;7.73;1.80;;;;;;;18.08;84.38;101350.94;5013468;28;20475;-70
2022/08/02 03:24:39;;;;;;;10.50;2.20;;;;;;;18.04;84.45;101359.03;5012986;28;21037;-70
2022/08/02 03:27:06;;;;;;;8.40;3.03;;;;;;;18.04;85.01;101352.75;5012812;28;20510;-70
2022/08/02 03:29:32;;;;;;;10.20;1.80;;;;;;;18.07;85.30;101363.84;5013363;28;20519;-70
2022/08/02 03:31:59;;;;;;;15.33;1.70;;;;;;;18.04;84.87;101358.22;5013054;28;20942;-70
2022/08/02 03:34:26;;;;;;;6.53;1.50;;;;;;;17.99;84.62;101355.69;5013294;28;20487;-70
2022/08/02 03:36:56;;;;;;;11.63;2.10;;;;;;;17.94;85.26;101356.69;5013167;28;20550;-70
2022/08/02 03:39:23;;;;;;;4.53;1.40;;;;;;;17.89;83.91;101360.41;5013198;28;20926;-71
2022/08/02 03:41:52;;;;;;;10.23;2.30;;;;;;;17.85;84.43;101353.97;5012900;28;20950;-70
2022/08/02 03:44:19;;;;;;;8.63;1.63;;;;;;;17.74;83.53;101366.44;5013277;28;20539;-71
2022/08/02 03:46:46;;;;;;;5.20;1.27;;;;;;;17.74;83.43;101360.97;5013180;28;20492;-72
2022/08/02 03:49:17;;;;;;;3.97;1.30;;;;;;;17.79;84.14;101358.03;5012833;28;20454;-72
2022/08/02 03:51:44;;;;;;;7.40;1.60;;;;;;;17.80;84.38;101367.09;5013161;28;20436;-72
2022/08/02 03:54:11;;;;;;;3.13;1.33;;;;;;;17.81;84.21;101369.47;5012821;28;20475;-72
2022/08/02 03:56:39;;;;;;;2.97;1.30;;;;;;;17.77;85.00;101371.28;5012807;28;21016;-72
2022/08/02 03:59:11;;;;;;;3.03;1.40;;;;;;;17.72;84.93;101365.94;5013018;28;20490;-72
2022/08/02 04:01:39;;;;;;;6.87;1.67;;;;;;;17.70;83.61;101370.16;5013172;28;20615;-72
2022/08/02 04:04:06;;;;;;;3.30;1.53;;;;;;;17.77;83.44;101376.75;5012718;28;21009;-72
2022/08/02 04:06:33;;;;;;;3.33;1.40;;;;;;;17.77;83.83;101376.75;5016514;28;20534;-71
2022/08/02 04:08:59;;;;;;;3.40;1.50;;;;;;;17.76;82.18;101375.16;5016750;28;20527;-72
2022/08/02 04:11:32;;;;;;;4.97;1.63;;;;;;;17.83;82.99;101380.91;5016384;28;20530;-71
2022/08/02 04:14:00;;;;;;;3.63;1.60;;;;;;;17.84;81.34;101379.78;5016658;28;20520;-72
2022/08/02 04:16:40;;;;;;;3.33;1.43;;;;;;;17.86;80.54;101384.94;5016481;28;20482;-71
2022/08/02 04:19:10;;;;;;;11.73;1.30;;;;;;;17.85;80.00;101389.63;5016235;28;21063;-72
2022/08/02 04:21:40;;;;;;;6.33;1.83;;;;;;;17.85;80.50;101388.81;5016164;28;20444;-72
2022/08/02 04:24:09;;;;;;;7.20;1.33;;;;;;;17.88;81.58;101393.63;5016426;28;20872;-72
2022/08/02 04:26:37;;;;;;;5.47;2.07;;;;;;;17.88;81.85;101396.34;5016088;28;20507;-71
2022/08/02 04:29:05;;;;;;;3.60;1.60;;;;;;;17.91;80.11;101395.72;5016047;28;20511;-71
2022/08/02 04:31:34;;;;;;;10.73;2.00;;;;;;;17.86;80.20;101404.13;5016264;28;20826;-71
2022/08/02 04:34:01;;;;;;;3.43;1.10;;;;;;;17.84;80.34;101404.47;5016247;28;20535;-71
2022/08/02 04:36:28;;;;;;;3.40;1.27;;;;;;;17.81;79.64;101401.56;5016158;28;20463;-71
2022/08/02 04:38:55;;;;;;;4.80;1.33;;;;;;;17.74;79.90;101398.53;5016088;28;20848;-76
2022/08/02 04:41:21;;;;;;;3.27;1.23;;;;;;;17.72;80.33;101400.78;5016159;28;20527;-73
2022/08/02 04:43:48;;;;;;;4.83;1.63;;;;;;;17.69;80.70;101395.94;5016072;28;20482;-71
2022/08/02 04:46:15;;;;;;;3.80;1.20;;;;;;;17.72;80.16;101401.56;5015608;28;20450;-70
2022/08/02 04:48:43;;;;;;;3.97;1.70;;;;;;;17.71;79.99;101402.72;5015687;28;20953;-69
2022/08/02 04:51:09;;;;;;;3.87;1.10;;;;;;;17.72;80.70;101390.63;5015942;28;20479;-70
2022/08/02 04:53:36;;;;;;;3.17;1.03;;;;;;;17.75;81.97;101387.25;5015818;28;20532;-70
2022/08/02 04:56:02;;;;;;;3.00;1.40;;;;;;;17.81;83.73;101391.41;5015852;28;20993;-70
2022/08/02 04:58:29;;;;;;;4.77;1.60;;;;;;;17.79;81.70;101390.91;5015405;28;20837;-69
2022/08/02 05:00:55;;;;;;;4.80;1.77;;;;;;;17.84;82.60;101387.19;5015346;28;20522;-69
2022/08/02 05:03:22;;;;;;;3.50;1.60;;;;;;;17.88;82.54;101394.44;5015678;28;20476;-70
2022/08/02 05:05:50;;;;;;;3.10;1.67;;;;;;;17.95;82.25;101404.06;5015653;28;20535;-70
2022/08/02 05:08:16;;;;;;;2.73;1.13;;;;;;;18.01;82.81;101397.25;5015263;28;21046;-70
2022/08/02 05:10:43;;;;;;;4.30;1.50;;;;;;;18.08;83.62;101394.81;5015573;28;20464;-69
2022/08/02 05:13:10;;;;;;;5.03;2.07;;;;;;;18.07;84.93;101401.44;5015523;28;20446;-70
2022/08/02 05:15:36;;;;;;;3.13;1.47;;;;;;;18.12;86.44;101398.50;5015154;28;20479;-70
2022/08/02 05:18:03;;;;;;;9.30;1.70;;;;;;;18.16;86.61;101404.94;5015022;28;20531;-70
2022/08/02 05:20:30;;;;;;;2.87;1.17;;;;;;;18.16;84.37;101404.94;5014989;28;20937;-69
2022/08/02 05:22:58;;;;;;;3.83;1.70;;;;;;;18.21;81.53;101412.97;5015317;28;20440;-69
2022/08/02 05:25:24;;;;;;;5.50;1.70;;;;;;;18.27;83.25;101402.59;5015250;28;20535;-70
2022/08/02 05:27:51;;;;;;;15.23;2.27;;;;;;;18.32;84.30;101413.34;5016377;28;20507;-70
2022/08/02 05:30:18;;;;;;;4.03;1.87;;;;;;;18.31;81.38;101409.81;5015144;28;20440;-69
2022/08/02 05:32:46;;;;;;;6.27;1.40;;;;;;;18.35;81.34;101416.25;5015149;28;20479;-69
2022/08/02 05:35:13;;;;;;;3.80;1.30;;;;;;;18.40;80.73;101423.47;5015153;28;20498;-69
2022/08/02 05:37:40;;;;;;;3.30;1.30;;;;;;;18.43;80.06;101424.75;5014714;28;20560;-69
2022/08/02 05:40:09;;;;;;;2.53;0.93;;;;;;;18.47;79.55;101420.22;5014639;28;20494;-70
2022/08/02 05:42:36;;;;;;;3.27;1.40;;;;;;;18.52;77.72;101423.56;5014655;28;20945;-70
2022/08/02 05:45:03;;;;;;;6.37;1.10;;;;;;;18.59;77.97;101412.84;5014970;28;20450;-70
2022/08/02 05:47:30;;;;;;;3.40;1.40;;;;;;;18.64;77.53;101423.63;5014675;28;20523;-70
2022/08/02 05:49:56;;;;;;;2.97;1.23;;;;;;;18.71;78.02;101430.53;5014508;28;20527;-69
2022/08/02 05:52:26;;;;;;;11.40;1.10;;;;;;;18.76;77.83;101433.06;5014712;28;20476;-69
2022/08/02 05:55:01;;;;;;;7.33;1.80;;;;;;;18.81;77.25;101433.66;5014729;28;20531;-69
2022/08/02 05:57:45;;;;;;;3.10;1.23;;;;;;;18.92;76.25;101441.50;5014589;28;20503;-69
2022/08/02 06:00:14;;;;;;;5.03;1.30;;;;;;;19.02;75.66;101435.59;5014615;28;20551;-70
2022/08/02 06:03:02;;;;;;;3.57;1.50;;;;;;;19.14;75.46;101449.38;5014598;28;20472;-71
2022/08/02 06:05:33;;;;;;;5.33;1.47;;;;;;;19.16;74.67;101442.41;5014594;28;20436;-71
2022/08/02 06:08:00;;;;;;;3.00;1.10;;;;;;;19.28;72.19;101447.13;5014465;28;20474;-71
2022/08/02 06:10:28;;;;;;;3.37;1.30;;;;;;;19.39;71.80;101458.53;5014522;28;20519;-70
2022/08/02 06:13:07;;;;;;;2.67;1.27;;;;;;;19.51;70.65;101450.28;5014682;28;20444;-70
2022/08/02 06:15:34;;;;;;;2.77;1.07;;;;;;;19.58;70.87;101453.28;5014464;28;20499;-70
2022/08/02 06:18:01;;;;;;;4.40;1.30;;;;;;;19.58;73.26;101458.78;5014265;28;20471;-70
2022/08/02 06:20:34;;;;;;;2.97;1.20;;;;;;;19.67;70.58;101453.22;5014467;28;20575;-70
2022/08/02 06:23:02;;;;;;;4.43;1.50;;;;;;;19.75;68.91;101446.81;5014326;28;20431;-70
2022/08/02 06:25:29;;;;;;;2.77;1.00;;;;;;;19.85;69.23;101453.81;5013923;28;20482;-70
2022/08/02 06:27:59;;;;;;;5.83;1.20;;;;;;;19.91;67.95;101455.97;5013322;28;20479;-70
2022/08/02 06:30:26;;;;;;;3.10;1.37;;;;;;;19.99;68.30;101445.22;5014108;28;20519;-70
2022/08/02 06:32:53;;;;;;;3.53;1.47;;;;;;;20.10;67.86;101449.13;5014098;28;20494;-70
2022/08/02 06:35:20;;;;;;;2.77;1.13;;;;;;;20.13;63.71;101448.41;5014244;28;20887;-76
2022/08/02 06:37:51;;;;;;;2.77;1.13;;;;;;;20.16;62.18;101447.75;5013928;28;20468;-69
2022/08/02 06:40:25;;;;;;;2.83;1.07;;;;;;;20.21;63.03;101446.69;5013951;28;20558;-69
2022/08/02 06:43:05;;;;;;;3.80;1.80;;;;;;;20.26;62.75;101449.22;5013932;28;20429;-69
2022/08/02 06:45:33;;;;;;;3.10;0.97;;;;;;;20.23;64.22;101447.97;5013612;28;20424;-67
2022/08/02 06:47:59;;;;;;;3.93;1.03;;;;;;;20.32;64.09;101443.16;5014043;28;20460;-69
2022/08/02 06:50:26;;;;;;;3.37;1.10;;;;;;;20.42;64.01;101442.66;5013895;28;20443;-67
2022/08/02 06:52:53;;;;;;;2.57;1.20;;;;;;;20.50;64.29;101432.69;5013758;28;20534;-69
2022/08/02 06:55:20;;;;;;;2.20;0.73;;;;;;;20.58;62.83;101433.69;5013708;28;20531;-69
2022/08/02 06:57:47;;;;;;;4.10;1.50;;;;;;;20.68;62.05;101438.75;5013581;28;20460;-70
2022/08/02 07:00:15;;;;;;;3.10;1.40;;;;;;;20.60;61.07;101434.97;5013598;28;20570;-74
2022/08/02 07:02:42;;;;;;;2.30;0.90;;;;;;;20.62;62.14;101435.41;5014247;28;20448;-75
2022/08/02 07:05:09;;;;;;;3.07;0.77;;;;;;;20.61;61.42;101438.50;5013539;28;20577;-71
2022/08/02 07:07:36;;;;;;;2.50;1.03;;;;;;;20.52;62.20;101441.41;5013493;28;20539;-72
2022/08/02 07:10:02;;;;;;;4.47;1.60;;;;;;;20.62;61.75;101442.88;5013227;28;20526;-73
2022/08/02 07:12:30;;;;;;;3.30;1.10;;;;;;;20.63;62.28;101444.50;5013200;28;21005;-74
2022/08/02 07:14:57;;;;;;;3.50;0.90;;;;;;;20.63;61.87;101441.75;5013209;28;21017;-71
2022/08/02 07:17:25;;;;;;;6.50;1.00;;;;;;;20.61;62.10;101444.81;5013677;28;20472;-74
2022/08/02 07:19:52;;;;;;;2.47;1.17;;;;;;;20.66;61.82;101449.28;5013384;28;20487;-72
2022/08/02 07:22:21;;;;;;;4.43;1.20;;;;;;;20.73;60.82;101451.47;5013361;28;20527;-74
2022/08/02 07:24:48;;;;;;;4.03;1.20;;;;;;;20.69;61.25;101445.84;5013368;28;20527;-73
2022/08/02 07:27:15;;;;;;;4.50;1.17;;;;;;;20.70;62.27;101441.13;5012975;28;20932;-73
2022/08/02 07:29:42;;;;;;;3.77;1.20;;;;;;;20.73;60.73;101444.00;5013309;28;20527;-73
2022/08/02 07:32:09;;;;;;;3.50;1.10;;;;;;;20.72;61.33;101445.16;5013405;28;20476;-73
2022/08/02 07:34:36;;;;;;;4.70;1.20;;;;;;;20.77;59.96;101439.41;5013016;28;20536;-73
2022/08/02 07:37:03;;;;;;;2.83;1.03;;;;;;;20.79;60.77;101436.28;5013256;28;20550;-73
2022/08/02 07:39:30;;;;;;;4.13;1.47;;;;;;;20.78;60.81;101435.47;5015421;28;20495;-74
2022/08/02 07:41:57;;;;;;;4.83;1.30;;;;;;;20.88;61.09;101439.69;5017192;28;20571;-73
2022/08/02 07:44:24;;;;;;;3.30;1.60;;;;;;;20.81;64.24;101431.25;5016943;28;20883;-73
2022/08/02 07:46:50;;;;;;;2.80;1.00;;;;;;;20.59;60.68;101430.63;5017088;28;20468;-73
2022/08/02 07:49:18;;;;;;;2.80;1.03;;;;;;;20.72;62.01;101428.63;5017143;28;20498;-73
2022/08/02 07:51:46;;;;;;;2.93;0.90;;;;;;;20.83;61.59;101437.97;5016706;28;20520;-74
2022/08/02 07:54:13;;;;;;;2.70;1.17;;;;;;;20.99;61.33;101426.22;5017070;28;20494;-73
2022/08/02 07:56:39;;;;;;;3.30;1.10;;;;;;;21.11;59.77;101428.91;5016905;28;20522;-73
2022/08/02 07:59:06;;;;;;;2.20;0.80;;;;;;;21.20;60.30;101431.50;5016639;28;20993;-73
2022/08/02 08:01:33;;;;;;;2.93;0.80;;;;;;;21.32;59.93;101423.22;5016681;28;20566;-73
2022/08/02 08:03:59;;;;;;;4.70;1.27;;;;;;;21.39;59.67;101413.19;5016526;28;20938;-73
2022/08/02 08:06:26;;;;;;;3.40;1.03;;;;;;;21.43;59.61;101424.31;5016916;28;20474;-73
2022/08/02 08:08:54;;;;;;;2.63;1.10;;;;;;;21.50;61.68;101420.91;5016690;28;20530;-73
2022/08/02 08:11:20;;;;;;;3.80;0.90;;;;;;;21.53;58.58;101417.47;5016678;28;20439;-73
2022/08/02 08:13:47;;;;;;;2.60;1.10;;;;;;;21.54;57.85;101425.38;5016621;28;20881;-73
2022/08/02 08:16:14;;;;;;;3.90;1.30;;;;;;;21.66;58.88;101418.97;5016600;28;20819;-73
2022/08/02 08:18:40;;;;;;;5.33;1.03;;;;;;;21.70;57.89;101422.63;5016558;28;20439;-73
2022/08/02 08:21:07;;;;;;;2.57;1.20;;;;;;;21.76;57.81;101425.91;5016435;28;20578;-73
2022/08/02 08:23:34;;;;;;;5.07;1.57;;;;;;;21.85;58.28;101423.75;5016457;28;20440;-73
2022/08/02 08:26:02;;;;;;;3.03;0.80;;;;;;;21.87;56.45;101410.44;5016403;28;20897;-73
2022/08/02 08:28:29;;;;;;;2.23;0.70;;;;;;;21.94;58.92;101401.50;5015868;28;20574;-73
2022/08/02 08:30:55;;;;;;;2.63;0.93;;;;;;;22.04;57.73;101414.75;5016309;28;20534;-74
2022/08/02 08:33:22;;;;;;;2.60;1.00;;;;;;;22.11;55.99;101409.41;5016264;28;20531;-73
2022/08/02 08:35:48;;;;;;;6.90;1.83;;;;;;;22.17;56.19;101405.22;5015903;28;21032;-73
2022/08/02 08:38:15;;;;;;;2.97;1.57;;;;;;;22.24;56.48;101401.84;5015859;28;20555;-74
2022/08/02 08:40:43;;;;;;;4.00;0.93;;;;;;;22.25;56.31;101395.94;5016029;28;20495;-73
2022/08/02 08:43:12;;;;;;;3.10;1.07;;;;;;;22.34;55.04;101398.50;5016088;28;20547;-74
2022/08/02 08:45:39;;;;;;;2.30;0.90;;;;;;;22.31;56.25;101397.28;5016047;28;20444;-74
2022/08/02 08:48:11;;;;;;;4.00;1.27;;;;;;;22.35;55.76;101398.13;5015614;28;20911;-75
2022/08/02 08:50:41;;;;;;;2.30;0.87;;;;;;;22.40;55.62;101410.84;5015262;28;20432;-74
2022/08/02 08:53:09;;;;;;;4.33;1.20;;;;;;;22.40;56.15;101408.91;5015740;28;20421;-74
2022/08/02 08:55:37;;;;;;;2.50;0.90;;;;;;;22.48;55.51;101398.78;5015868;28;20467;-74
2022/08/02 08:58:05;;;;;;;4.67;1.20;;;;;;;22.53;54.29;101392.19;5015717;28;21070;-75
2022/08/02 09:00:35;;;;;;;1.90;0.60;;;;;;;22.61;56.19;101400.25;5015753;28;20534;-74
2022/08/02 09:03:02;;;;;;;7.10;1.13;;;;;;;22.73;56.15;101399.31;5015444;28;21012;-74
2022/08/02 09:05:29;;;;;;;3.50;1.00;;;;;;;22.78;54.18;101404.53;5015418;28;21017;-75
2022/08/02 09:07:55;;;;;;;2.70;1.00;;;;;;;22.82;54.80;101388.84;5015523;28;20551;-74
2022/08/02 09:10:33;;;;;;;3.53;1.10;;;;;;;22.83;53.74;101395.16;5015522;28;20519;-74
2022/08/02 09:13:12;;;;;;;6.27;1.30;;;;;;;22.88;53.15;101394.88;5015444;28;20443;-74
2022/08/02 09:15:41;;;;;;;6.93;1.60;;;;;;;22.96;54.37;101396.63;5015799;28;20834;-74
2022/08/02 09:18:08;;;;;;;2.80;1.03;;;;;;;22.97;53.31;101389.16;5015443;28;20555;-74
2022/08/02 09:20:50;;;;;;;2.47;1.03;;;;;;;22.92;55.16;101393.81;5015425;28;20574;-74
2022/08/02 09:23:17;;;;;;;2.40;0.73;;;;;;;23.09;54.96;101397.28;5015217;28;20976;-74
2022/08/02 09:25:55;;;;;;;3.13;1.27;;;;;;;23.23;53.93;101393.97;5015341;28;20452;-74
2022/08/02 09:28:25;;;;;;;3.03;1.17;;;;;;;23.20;54.43;101390.00;5015082;28;20479;-74
2022/08/02 09:30:56;;;;;;;2.30;0.97;;;;;;;23.32;52.96;101394.53;5015020;28;20523;-74
2022/08/02 09:33:27;;;;;;;2.10;0.80;;;;;;;23.28;52.25;101390.91;5015237;28;20440;-75
2022/08/02 09:36:00;;;;;;;4.90;1.23;;;;;;;23.27;52.64;101392.06;5015093;28;20454;-74
2022/08/02 09:38:27;;;;;;;3.90;1.00;;;;;;;23.27;54.12;101390.09;5015018;28;20806;-74
2022/08/02 09:40:54;;;;;;;4.63;1.13;;;;;;;23.31;54.08;101390.97;5014650;28;20938;-74
2022/08/02 09:43:21;;;;;;;3.20;0.80;;;;;;;23.57;52.62;101384.69;5014907;28;20531;-75
2022/08/02 09:45:47;;;;;;;2.63;1.00;;;;;;;23.74;50.54;101388.94;5014932;28;20452;-74
2022/08/02 09:48:15;;;;;;;2.63;1.03;;;;;;;23.58;50.90;101385.50;5014535;28;20464;-76
2022/08/02 09:50:45;;;;;;;2.77;1.00;;;;;;;23.41;52.78;101381.25;5014750;28;20437;-70
2022/08/02 09:53:13;;;;;;;2.50;0.90;;;;;;;23.47;52.61;101379.00;5014704;28;20926;-76
2022/08/02 09:55:40;;;;;;;2.20;0.70;;;;;;;23.47;51.65;101384.53;5014355;28;20787;-75
2022/08/02 09:58:18;;;;;;;3.43;1.00;;;;;;;23.54;52.30;101388.19;5014614;28;20554;-74
2022/08/02 10:00:53;;;;;;;3.53;1.30;;;;;;;23.74;50.90;101396.47;5014279;28;21005;-76
2022/08/02 10:03:21;;;;;;;3.33;1.10;;;;;;;23.68;51.02;101398.72;5013735;28;20459;-74
2022/08/02 10:05:50;;;;;;;5.10;1.20;;;;;;;23.64;50.93;101389.53;5014556;28;20479;-74
2022/08/02 10:08:17;;;;;;;2.50;1.30;;;;;;;23.66;51.80;101392.78;5013955;28;20472;-74
2022/08/02 10:10:44;;;;;;;2.27;1.00;;;;;;;23.71;51.91;101381.38;5013851;28;20894;-72
2022/08/02 10:13:11;;;;;;;2.27;0.97;;;;;;;23.83;51.35;101397.78;5014143;28;20475;-73
2022/08/02 10:15:39;;;;;;;2.37;1.00;;;;;;;23.92;53.71;101390.03;5014399;28;20451;-75
2022/08/02 10:18:06;;;;;;;11.40;1.37;;;;;;;24.18;51.37;101399.50;5014321;28;20551;-76
2022/08/02 10:20:43;;;;;;;3.03;0.90;;;;;;;24.37;49.36;101409.66;5014232;28;20523;-74
2022/08/02 10:23:12;;;;;;;4.80;0.83;;;;;;;24.39;49.20;101402.59;5014043;28;20514;-74
2022/08/02 10:25:40;;;;;;;3.27;1.03;;;;;;;24.41;49.22;101403.00;5013938;28;20463;-72
2022/08/02 10:28:08;;;;;;;2.67;0.90;;;;;;;24.35;49.35;101406.47;5013843;28;20571;-73
2022/08/02 10:30:39;;;;;;;3.03;1.20;;;;;;;24.47;48.79;101394.34;5013731;28;21017;-71
2022/08/02 10:33:08;;;;;;;2.60;1.00;;;;;;;24.59;50.62;101394.13;5014224;28;20515;-73
2022/08/02 10:35:38;;;;;;;2.43;1.10;;;;;;;24.81;49.30;101398.75;5014069;28;20449;-72
2022/08/02 10:38:07;;;;;;;2.07;0.73;;;;;;;24.67;47.64;101404.13;5014212;28;20551;-73
2022/08/02 10:40:48;;;;;;;3.30;1.47;;;;;;;24.53;48.35;101390.91;5013883;28;20440;-74
2022/08/02 10:43:41;;;;;;;2.40;1.00;;;;;;;24.56;48.12;101367.16;5013891;28;20508;-74
2022/08/02 10:46:29;;;;;;;2.63;1.10;;;;;;;24.54;47.63;101381.41;5013807;28;20452;-73
2022/08/02 10:49:11;;;;;;;2.50;1.10;;;;;;;24.60;48.08;101368.78;5013790;28;20511;-73
2022/08/02 10:52:06;;;;;;;3.27;1.10;;;;;;;24.82;51.80;101346.88;5013596;28;20792;-74
2022/08/02 10:54:36;;;;;;;3.37;1.67;;;;;;;25.06;49.42;101342.78;5013906;28;20527;-75
2022/08/02 10:57:03;;;;;;;2.40;1.00;;;;;;;25.23;47.61;101353.25;5013680;28;20464;-75
2022/08/02 10:59:32;;;;;;;2.90;0.97;;;;;;;25.26;47.39;101349.72;5013703;28;20454;-75
2022/08/02 11:02:03;;;;;;;3.50;1.13;;;;;;;25.35;48.61;101330.75;5013638;28;20483;-74
2022/08/02 11:04:31;;;;;;;2.10;0.70;;;;;;;25.50;48.04;101334.47;5013364;28;20464;-74
2022/08/02 11:07:12;;;;;;;4.30;1.20;;;;;;;25.44;47.01;101337.97;5013428;28;20514;-74
2022/08/02 11:09:40;;;;;;;2.83;1.17;;;;;;;25.49;47.19;101334.84;5013506;28;20524;-74
2022/08/02 11:12:09;;;;;;;2.73;1.17;;;;;;;25.53;46.17;101338.44;5013288;28;20968;-75
2022/08/02 11:14:37;;;;;;;8.50;1.10;;;;;;;25.59;46.75;101340.47;5012879;28;20826;-73
2022/08/02 11:17:12;;;;;;;3.00;1.27;;;;;;;25.80;45.00;101337.06;5013474;28;20575;-75
2022/08/02 11:20:16;;;;;;;2.77;1.20;;;;;;;25.84;46.51;101342.63;5013430;28;20495;-75
2022/08/02 11:22:45;;;;;;;2.80;1.30;;;;;;;26.03;44.70;101341.56;5013358;28;20470;-74
2022/08/02 11:25:32;;;;;;;2.60;0.87;;;;;;;26.28;44.69;101341.69;5013416;28;20455;-75
2022/08/02 11:28:09;;;;;;;4.00;1.13;;;;;;;26.66;43.69;101346.63;5013070;28;20515;-72
2022/08/02 11:30:36;;;;;;;10.63;1.27;;;;;;;27.08;43.89;101347.88;5013447;28;20853;-71
2022/08/02 11:33:03;;;;;;;2.47;0.90;;;;;;;27.37;41.53;101340.38;5013082;28;20450;-74